Time;durP1;ratioP1;P1;durP2;ratioP2;P2;SDS_P1;SDS_P2;PMS_P1;PMS_P2;Temp;Humidity;BMP_temperature;BMP_pressure;BME280_temperature;BME280_humidity;BME280_pressure;Samples;Min_cycle;Max_cycle;Signal;HPM_P1;HPM_P2
2021/07/10 11:58:51;;;;;;;2.22;0.60;;;;;;;26.65;43.72;99226.63;2291123;77;23341;-70
2021/07/10 12:01:51;;;;;;;2.60;1.07;;;;;;;26.74;42.72;99216.10;2236988;79;21031;-70
2021/07/10 12:04:51;;;;;;;2.43;0.90;;;;;;;26.40;41.68;99220.19;2237028;79;21035;-71
2021/07/10 12:07:52;;;;;;;1.53;1.00;;;;;;;25.42;42.71;99232.73;2237100;79;20952;-71
2021/07/10 12:10:54;;;;;;;2.30;1.20;;;;;;;24.75;43.53;99222.05;2237170;79;21004;-72
2021/07/10 12:13:54;;;;;;;4.30;1.47;;;;;;;24.68;45.00;99223.27;2236784;79;21044;-70
2021/07/10 12:16:56;;;;;;;4.62;1.25;;;;;;;24.73;46.05;99215.52;2236347;80;21545;-71
2021/07/10 12:19:56;;;;;;;4.13;1.13;;;;;;;25.19;44.96;99213.91;2236916;79;20937;-70
2021/07/10 12:22:56;;;;;;;1.57;0.90;;;;;;;25.56;43.57;99216.34;2236906;79;20940;-70
2021/07/10 12:25:57;;;;;;;7.70;1.23;;;;;;;25.51;43.11;99208.81;2236752;79;21084;-72
2021/07/10 12:28:57;;;;;;;3.03;1.10;;;;;;;25.92;42.03;99204.41;2237050;79;20954;-71
2021/07/10 12:31:58;;;;;;;2.43;0.90;;;;;;;25.92;42.03;99204.41;2237018;80;20963;-70
2021/07/10 12:34:58;;;;;;;3.47;1.17;;;;;;;25.54;43.79;99206.28;2237019;79;21032;-69
2021/07/10 12:37:59;;;;;;;3.60;1.13;;;;;;;25.53;41.99;99207.28;2236966;79;21048;-70
2021/07/10 12:40:59;;;;;;;1.73;0.90;;;;;;;25.62;41.71;99209.42;2237018;79;21545;-70
2021/07/10 12:43:59;;;;;;;3.37;1.10;;;;;;;25.61;41.99;99209.91;2236993;79;21016;-70
2021/07/10 12:47:00;;;;;;;3.67;1.27;;;;;;;25.54;42.50;99211.65;2236922;79;21068;-70
2021/07/10 12:50:00;;;;;;;3.27;1.10;;;;;;;25.30;41.74;99201.42;2237011;79;21023;-70
2021/07/10 12:53:05;;;;;;;8.03;1.00;;;;;;;25.45;41.97;99203.34;2236979;80;21003;-70
2021/07/10 12:56:11;;;;;;;4.72;1.40;;;;;;;25.42;40.67;99201.86;2219033;80;21525;-71
2021/07/10 12:59:05;;;;;;;3.37;0.90;;;;;;;25.46;43.01;99203.66;2218551;80;21522;-70
2021/07/10 13:02:06;;;;;;;3.87;1.10;;;;;;;26.44;40.34;99203.19;2236255;79;21068;-70
2021/07/10 13:05:06;;;;;;;1.67;1.03;;;;;;;27.02;39.15;99195.70;2236394;79;20972;-72
2021/07/10 13:08:07;;;;;;;2.53;1.10;;;;;;;27.51;38.08;99192.77;2236495;79;20976;-70
2021/07/10 13:11:07;;;;;;;3.00;0.90;;;;;;;27.71;38.17;99196.44;2236148;80;21067;-70
2021/07/10 13:14:08;;;;;;;4.63;0.97;;;;;;;27.94;37.21;99198.05;2236302;79;21003;-71
2021/07/10 13:17:09;;;;;;;3.80;1.20;;;;;;;28.12;38.02;99187.63;2236230;79;21541;-71
2021/07/10 13:20:09;;;;;;;2.40;1.20;;;;;;;28.34;36.96;99191.05;2236244;79;21023;-71
2021/07/10 13:23:10;;;;;;;3.80;1.30;;;;;;;28.25;36.43;99184.69;2235819;79;21073;-69
2021/07/10 13:26:10;;;;;;;2.77;1.23;;;;;;;27.59;37.08;99206.09;2236207;80;21007;-69
2021/07/10 13:29:13;;;;;;;1.53;0.80;;;;;;;26.64;38.74;99207.47;2236398;79;21048;-70
2021/07/10 13:32:13;;;;;;;2.40;0.95;;;;;;;25.98;40.28;99202.02;2218438;80;20992;-69
2021/07/10 13:35:14;;;;;;;3.37;1.20;;;;;;;25.88;40.62;99204.44;2235992;79;20973;-71
2021/07/10 13:38:15;;;;;;;4.27;1.03;;;;;;;25.93;39.49;99199.37;2236235;79;21080;-70
2021/07/10 13:41:15;;;;;;;2.47;0.98;;;;;;;25.93;39.49;99199.37;2236153;79;20967;-72
2021/07/10 13:44:16;;;;;;;1.25;1.00;;;;;;;26.00;39.57;99200.81;2235973;79;21510;-71
2021/07/10 13:47:17;;;;;;;2.90;1.00;;;;;;;25.71;40.36;99196.23;2236204;80;21013;-73
2021/07/10 13:50:17;;;;;;;1.73;1.30;;;;;;;25.76;39.68;99183.92;2236235;79;21008;-70
2021/07/10 13:53:18;;;;;;;2.17;1.27;;;;;;;25.76;39.68;99183.92;2236213;79;21054;-72
2021/07/10 13:56:18;;;;;;;3.90;1.27;;;;;;;25.39;40.16;99194.16;2236182;80;20953;-71
2021/07/10 13:59:19;;;;;;;5.10;1.37;;;;;;;25.04;40.69;99191.02;2239558;79;21539;-70
2021/07/10 14:02:19;;;;;;;2.40;1.10;;;;;;;24.79;42.08;99188.50;2239975;79;21452;-70
2021/07/10 14:05:20;;;;;;;1.60;1.20;;;;;;;24.85;42.41;99191.81;2239910;79;20937;-70
2021/07/10 14:08:20;;;;;;;3.40;0.90;;;;;;;24.76;42.52;99196.08;2240101;79;21028;-70
2021/07/10 14:11:21;;;;;;;1.70;1.37;;;;;;;24.73;43.20;99198.60;2239916;79;20944;-71
2021/07/10 14:14:21;;;;;;;3.70;1.53;;;;;;;24.81;42.78;99192.34;2240183;79;21007;-72
2021/07/10 14:17:22;;;;;;;3.37;1.33;;;;;;;24.92;43.32;99193.28;2239811;79;21051;-72
2021/07/10 14:20:22;;;;;;;4.53;1.50;;;;;;;25.15;42.88;99187.10;2240075;79;20992;-72
2021/07/10 14:23:23;;;;;;;5.03;1.50;;;;;;;25.28;43.60;99193.21;2240115;79;21514;-70
2021/07/10 14:26:23;;;;;;;6.63;1.70;;;;;;;25.36;42.63;99193.19;2239902;79;20964;-70
2021/07/10 14:29:24;;;;;;;2.87;1.50;;;;;;;25.31;43.69;99193.70;2239929;79;21056;-71
2021/07/10 14:32:27;;;;;;;2.27;1.40;;;;;;;25.75;43.31;99182.76;2240186;79;20948;-72
2021/07/10 14:35:26;;;;;;;4.72;1.42;;;;;;;26.46;42.58;99178.27;2226416;79;21553;-70
2021/07/10 14:38:27;;;;;;;2.57;1.40;;;;;;;26.83;41.00;99167.56;2239930;79;20942;-69
2021/07/10 14:41:27;;;;;;;4.73;1.27;;;;;;;27.20;39.80;99171.04;2240054;79;20980;-71
2021/07/10 14:44:28;;;;;;;3.53;1.37;;;;;;;27.27;38.16;99173.28;2239911;79;21028;-71
2021/07/10 14:47:28;;;;;;;6.03;1.57;;;;;;;27.30;39.63;99180.97;2239963;79;21019;-71
2021/07/10 14:50:29;;;;;;;2.47;1.32;;;;;;;27.56;40.22;99167.44;2239434;79;20976;-71
2021/07/10 14:53:30;;;;;;;4.00;1.23;;;;;;;27.86;39.23;99176.14;2239874;79;21052;-70
2021/07/10 14:56:30;;;;;;;4.97;1.27;;;;;;;27.88;38.57;99164.63;2239980;79;21027;-70
2021/07/10 14:59:31;;;;;;;2.13;1.40;;;;;;;28.01;38.40;99159.88;2235853;79;21052;-71
2021/07/10 15:02:31;;;;;;;4.43;1.17;;;;;;;28.09;38.11;99164.29;2175238;82;21087;-70
2021/07/10 15:05:32;;;;;;;1.67;1.17;;;;;;;28.20;37.81;99158.30;2175382;82;20984;-70
2021/07/10 15:08:32;;;;;;;2.43;1.20;;;;;;;28.41;37.36;99150.62;2175419;81;21038;-70
2021/07/10 15:11:33;;;;;;;2.70;1.77;;;;;;;29.16;36.25;99149.78;2175516;81;20969;-71
2021/07/10 15:14:33;;;;;;;1.57;1.13;;;;;;;30.20;34.90;99156.36;2175069;81;21032;-71
2021/07/10 15:17:33;;;;;;;2.13;1.17;;;;;;;31.34;33.43;99151.69;2175233;81;21064;-70
2021/07/10 15:20:34;;;;;;;5.03;1.57;;;;;;;32.43;31.98;99146.33;2175388;81;20984;-69
2021/07/10 15:23:34;;;;;;;4.63;1.50;;;;;;;32.81;29.47;99145.20;2175294;81;21503;-70
2021/07/10 15:26:35;;;;;;;2.27;1.20;;;;;;;33.00;30.67;99147.31;2175233;81;21040;-70
2021/07/10 15:29:35;;;;;;;2.33;1.30;;;;;;;33.42;30.10;99144.59;2175303;81;20956;-71
2021/07/10 15:32:36;;;;;;;;;;;;;;;33.95;28.84;99150.13;2177770;81;21084;-71
2021/07/10 15:35:36;;;;;;;2.83;1.43;;;;;;;34.49;29.18;99138.47;2175218;82;20087;-72
2021/07/10 15:38:36;;;;;;;;;;;;;;;33.30;28.89;99150.02;2177762;81;21467;-70
2021/07/10 15:41:37;;;;;;;3.05;1.60;;;;;;;31.03;31.01;99139.86;2175315;82;20106;-70
2021/07/10 15:44:37;;;;;;;8.90;1.72;;;;;;;29.50;33.46;99153.36;2175150;81;21024;-71
2021/07/10 15:47:38;;;;;;;5.07;1.90;;;;;;;28.44;35.23;99144.00;2175132;81;20985;-70
2021/07/10 15:50:38;;;;;;;2.90;1.87;;;;;;;27.85;36.35;99143.48;2175499;81;21657;-72
2021/07/10 15:53:39;;;;;;;4.23;1.90;;;;;;;27.58;36.91;99144.64;2175389;81;21045;-72
2021/07/10 15:56:39;;;;;;;6.57;2.33;;;;;;;27.03;38.27;99136.81;2175174;82;21543;-71
2021/07/10 15:59:39;;;;;;;2.87;2.00;;;;;;;28.14;37.33;99137.55;2181582;81;21556;-71
2021/07/10 16:02:40;;;;;;;8.43;1.83;;;;;;;30.75;34.45;99136.16;2182226;81;20992;-74
2021/07/10 16:05:40;;;;;;;7.20;2.08;;;;;;;32.40;32.42;99133.22;2181737;82;21713;-70
2021/07/10 16:08:41;;;;;;;4.43;1.30;;;;;;;32.24;32.49;99128.72;2182275;82;21088;-71
2021/07/10 16:11:41;;;;;;;2.55;1.65;;;;;;;34.38;30.71;99135.29;2182204;81;21703;-74
2021/07/10 16:14:42;;;;;;;;;;;;;;;35.82;28.75;99129.56;2184700;81;21076;-71
2021/07/10 16:17:42;;;;;;;4.80;1.40;;;;;;;36.44;27.30;99122.14;2182263;82;20420;-72
2021/07/10 16:20:43;;;;;;;3.10;1.70;;;;;;;37.32;26.25;99130.63;2181962;81;21075;-71
2021/07/10 16:23:43;;;;;;;6.37;1.62;;;;;;;38.11;25.84;99130.83;2181618;81;21032;-70
2021/07/10 16:26:49;;;;;;;4.58;1.50;;;;;;;38.64;22.30;99132.11;2182141;82;21032;-70
2021/07/10 16:29:46;;;;;;;5.22;1.50;;;;;;;38.92;23.97;99128.06;2154766;82;21012;-70
2021/07/10 16:32:47;;;;;;;2.22;1.22;;;;;;;39.02;23.02;99135.44;2182327;81;20952;-71
2021/07/10 16:35:47;;;;;;;3.62;1.40;;;;;;;39.61;23.03;99127.23;2181938;81;21103;-72
2021/07/10 16:38:48;;;;;;;2.87;1.27;;;;;;;39.90;21.90;99131.23;2182233;81;21447;-71
2021/07/10 16:41:48;;;;;;;2.85;1.40;;;;;;;39.64;21.56;99140.92;2182127;82;21551;-71
2021/07/10 16:44:49;;;;;;;10.05;1.95;;;;;;;39.28;21.62;99135.47;2182105;82;21004;-70
2021/07/10 16:47:49;;;;;;;3.42;1.50;;;;;;;39.25;21.85;99133.28;2182101;81;21029;-70
2021/07/10 16:50:49;;;;;;;4.17;1.25;;;;;;;38.98;20.84;99148.89;2182227;82;20976;-72
2021/07/10 16:53:50;;;;;;;8.73;1.40;;;;;;;38.83;21.44;99137.09;2182364;81;21016;-72
2021/07/10 16:56:50;;;;;;;3.15;1.22;;;;;;;39.03;20.69;99138.47;2182190;81;21008;-71
2021/07/10 16:59:51;;;;;;;5.45;1.67;;;;;;;38.98;20.98;99142.04;2181626;81;21048;-70
2021/07/10 17:02:51;;;;;;;2.42;1.42;;;;;;;38.88;21.58;99143.94;2181931;82;21581;-70
2021/07/10 17:05:52;;;;;;;3.50;1.60;;;;;;;38.99;21.54;99146.44;2182154;82;21527;-73
2021/07/10 17:08:52;;;;;;;3.33;1.30;;;;;;;39.07;20.60;99150.53;2182218;81;21047;-71
2021/07/10 17:11:52;;;;;;;5.40;1.45;;;;;;;39.15;21.14;99151.92;2182068;81;21047;-73
2021/07/10 17:14:53;;;;;;;1.62;1.15;;;;;;;39.46;20.91;99149.98;2182055;81;21067;-72
2021/07/10 17:17:53;;;;;;;6.20;1.12;;;;;;;39.81;20.87;99151.59;2182190;81;20993;-72
2021/07/10 17:20:55;;;;;;;1.72;1.35;;;;;;;39.84;19.83;99156.52;2182342;81;21024;-73
2021/07/10 17:23:56;;;;;;;2.08;1.27;;;;;;;39.54;19.97;99161.49;2181875;82;21546;-74
2021/07/10 17:26:57;;;;;;;1.98;1.17;;;;;;;39.72;20.03;99153.27;2182079;81;21048;-71
2021/07/10 17:29:57;;;;;;;4.40;1.30;;;;;;;39.64;19.95;99149.99;2181925;81;21079;-71
2021/07/10 17:33:01;;;;;;;6.90;1.20;;;;;;;39.59;20.22;99154.67;2182157;81;21068;-72
2021/07/10 17:36:02;;;;;;;6.47;1.50;;;;;;;39.46;20.04;99160.14;2181965;82;21056;-72
2021/07/10 17:39:03;;;;;;;5.97;1.32;;;;;;;39.12;20.49;99153.32;2182198;82;21003;-74
2021/07/10 17:42:03;;;;;;;1.95;1.25;;;;;;;38.99;20.48;99161.52;2182201;81;21056;-75
2021/07/10 17:45:04;;;;;;;3.27;1.40;;;;;;;39.10;20.81;99162.87;2181993;81;21466;-72
2021/07/10 17:48:04;;;;;;;5.60;1.65;;;;;;;39.22;20.70;99157.95;2182038;82;21111;-71
2021/07/10 17:51:05;;;;;;;3.22;1.45;;;;;;;39.07;20.98;99165.61;2182166;81;20986;-72
2021/07/10 17:54:05;;;;;;;2.87;1.30;;;;;;;39.08;20.93;99161.78;2182267;82;20937;-74
2021/07/10 17:57:05;;;;;;;3.33;1.60;;;;;;;39.03;20.67;99159.59;2181831;81;20973;-72
2021/07/10 18:00:06;;;;;;;2.33;1.30;;;;;;;38.73;21.20;99165.30;2182106;81;21606;-72
2021/07/10 18:03:06;;;;;;;7.10;1.80;;;;;;;38.55;21.33;99165.22;2182061;81;21503;-72
2021/07/10 18:06:07;;;;;;;2.85;1.30;;;;;;;38.34;21.27;99170.64;2182006;82;21016;-74
2021/07/10 18:09:07;;;;;;;7.35;1.60;;;;;;;37.73;22.07;99175.20;2181986;82;21036;-71
2021/07/10 18:12:08;;;;;;;6.42;1.37;;;;;;;37.24;22.36;99170.73;2182030;81;21044;-70
2021/07/10 18:15:08;;;;;;;5.92;1.70;;;;;;;37.24;22.41;99181.14;2182106;81;20992;-71
2021/07/10 18:18:08;;;;;;;4.58;1.62;;;;;;;36.69;22.83;99180.30;2182142;81;21023;-71
2021/07/10 18:21:09;;;;;;;6.37;1.47;;;;;;;35.92;23.83;99182.60;2182249;82;21025;-70
2021/07/10 18:24:09;;;;;;;3.25;1.10;;;;;;;35.19;24.80;99184.72;2181757;81;21055;-71
2021/07/10 18:27:10;;;;;;;3.55;1.35;;;;;;;34.73;25.33;99182.51;2182121;81;20992;-71
2021/07/10 18:30:10;;;;;;;2.90;1.35;;;;;;;34.14;26.07;99182.94;2182140;81;21503;-71
2021/07/10 18:33:11;;;;;;;4.75;1.80;;;;;;;33.26;26.96;99185.52;2182149;81;21080;-71
2021/07/10 18:36:11;;;;;;;3.50;1.42;;;;;;;32.25;27.93;99186.52;2182095;81;21003;-71
2021/07/10 18:39:11;;;;;;;1.92;1.37;;;;;;;31.06;29.59;99188.16;2182146;81;21043;-70
2021/07/10 18:42:12;;;;;;;3.40;1.80;;;;;;;29.97;31.02;99196.56;2182217;81;20988;-70
2021/07/10 18:45:14;;;;;;;7.53;3.12;;;;;;;28.99;32.39;99203.34;2154933;82;21052;-71
2021/07/10 18:48:15;;;;;;;14.23;3.40;;;;;;;27.95;33.83;99211.86;2182286;81;21071;-70
2021/07/10 18:51:16;;;;;;;10.58;3.50;;;;;;;26.82;35.62;99209.77;2182122;82;20945;-71
2021/07/10 18:54:17;;;;;;;18.12;5.75;;;;;;;25.82;36.97;99211.91;2182080;81;21111;-71
2021/07/10 18:57:18;;;;;;;17.60;4.93;;;;;;;25.07;38.20;99209.47;2182151;81;21063;-71
2021/07/10 19:00:18;;;;;;;19.70;6.08;;;;;;;24.47;39.36;99215.78;2175838;82;20985;-71
2021/07/10 19:03:19;;;;;;;16.80;5.70;;;;;;;23.92;40.68;99216.61;2175365;82;21039;-71
2021/07/10 19:06:19;;;;;;;15.87;5.07;;;;;;;23.32;41.86;99219.46;2175379;81;21535;-71
2021/07/10 19:09:20;;;;;;;18.80;4.83;;;;;;;22.72;43.13;99216.98;2174936;81;21032;-71
2021/07/10 19:12:22;;;;;;;17.87;4.57;;;;;;;22.21;44.44;99224.91;2175422;81;21223;-70
2021/07/10 19:15:23;;;;;;;15.18;5.05;;;;;;;21.72;45.52;99227.62;2146120;82;21533;-70
2021/07/10 19:18:23;;;;;;;14.83;4.27;;;;;;;21.29;46.29;99222.54;2175394;81;21076;-70
2021/07/10 19:21:24;;;;;;;18.53;6.20;;;;;;;20.91;47.04;99232.52;2175490;81;20965;-70
2021/07/10 19:24:24;;;;;;;20.30;6.30;;;;;;;20.61;47.89;99229.14;2176088;82;20984;-70
2021/07/10 19:27:24;;;;;;;16.00;5.10;;;;;;;20.38;48.66;99219.37;2175473;81;20983;-71
